sensor_id;sensor_type;location;lat;lon;timestamp;pressure;altitude;pressure_sealevel;temperature;humidity
73242;BME280;65659;49.234;-2.094;2023-08-24T00:01:35;100392.00;;;23.06;41.43
73242;BME280;65659;49.234;-2.094;2023-08-24T00:04:00;100385.75;;;22.56;41.63
73242;BME280;65659;49.234;-2.094;2023-08-24T00:06:26;100378.08;;;22.78;41.81
73242;BME280;65659;49.234;-2.094;2023-08-24T00:08:52;100368.18;;;22.51;41.74
73242;BME280;65659;49.234;-2.094;2023-08-24T00:11:17;100357.46;;;22.78;41.17
73242;BME280;65659;49.234;-2.094;2023-08-24T00:13:43;100350.77;;;22.59;40.85
73242;BME280;65659;49.234;-2.094;2023-08-24T00:16:09;100348.86;;;22.82;40.69
73242;BME280;65659;49.234;-2.094;2023-08-24T00:18:35;100344.22;;;22.78;40.52
73242;BME280;65659;49.234;-2.094;2023-08-24T00:21:00;100338.57;;;22.73;40.24
73242;BME280;65659;49.234;-2.094;2023-08-24T00:23:26;100335.17;;;23.02;40.16
73242;BME280;65659;49.234;-2.094;2023-08-24T00:25:51;100325.70;;;22.98;39.99
73242;BME280;65659;49.234;-2.094;2023-08-24T00:28:17;100322.34;;;22.51;39.55
73242;BME280;65659;49.234;-2.094;2023-08-24T00:30:43;100324.11;;;23.01;39.13
73242;BME280;65659;49.234;-2.094;2023-08-24T00:33:09;100317.97;;;23.05;38.50
73242;BME280;65659;49.234;-2.094;2023-08-24T00:35:40;100317.89;;;22.81;38.07
73242;BME280;65659;49.234;-2.094;2023-08-24T00:38:00;100309.06;;;22.84;37.50
73242;BME280;65659;49.234;-2.094;2023-08-24T00:40:26;100299.94;;;23.13;37.20
73242;BME280;65659;49.234;-2.094;2023-08-24T00:42:51;100293.79;;;23.12;37.16
73242;BME280;65659;49.234;-2.094;2023-08-24T00:45:18;100287.57;;;23.14;37.39
73242;BME280;65659;49.234;-2.094;2023-08-24T00:47:44;100277.80;;;22.72;37.64
73242;BME280;65659;49.234;-2.094;2023-08-24T00:50:09;100268.98;;;23.20;37.92
73242;BME280;65659;49.234;-2.094;2023-08-24T00:52:36;100265.43;;;23.18;38.18
73242;BME280;65659;49.234;-2.094;2023-08-24T00:55:01;100259.28;;;23.15;38.36
73242;BME280;65659;49.234;-2.094;2023-08-24T00:57:26;100254.94;;;23.13;38.33
73242;BME280;65659;49.234;-2.094;2023-08-24T00:59:51;100249.80;;;22.90;38.25
73242;BME280;65659;49.234;-2.094;2023-08-24T01:02:17;100249.84;;;22.69;38.01
73242;BME280;65659;49.234;-2.094;2023-08-24T01:04:43;100249.28;;;22.96;37.69
73242;BME280;65659;49.234;-2.094;2023-08-24T01:07:09;100254.01;;;22.76;37.56
73242;BME280;65659;49.234;-2.094;2023-08-24T01:09:40;100251.95;;;23.02;37.77
73242;BME280;65659;49.234;-2.094;2023-08-24T01:12:04;100248.39;;;22.83;38.00
73242;BME280;65659;49.234;-2.094;2023-08-24T01:14:34;100246.13;;;22.84;38.30
73242;BME280;65659;49.234;-2.094;2023-08-24T01:16:54;100245.45;;;23.10;38.54
73242;BME280;65659;49.234;-2.094;2023-08-24T01:19:29;100243.30;;;22.88;38.80
73242;BME280;65659;49.234;-2.094;2023-08-24T01:21:43;100242.87;;;23.40;39.04
73242;BME280;65659;49.234;-2.094;2023-08-24T01:24:14;100237.44;;;22.98;39.32
73242;BME280;65659;49.234;-2.094;2023-08-24T01:26:40;100233.64;;;23.15;39.65
73242;BME280;65659;49.234;-2.094;2023-08-24T01:29:01;100235.80;;;23.17;39.95
73242;BME280;65659;49.234;-2.094;2023-08-24T01:31:26;100230.57;;;22.94;40.22
73242;BME280;65659;49.234;-2.094;2023-08-24T01:33:51;100228.56;;;23.46;40.37
73242;BME280;65659;49.234;-2.094;2023-08-24T01:36:17;100226.23;;;23.18;40.79
73242;BME280;65659;49.234;-2.094;2023-08-24T01:38:43;100218.92;;;23.00;40.88
73242;BME280;65659;49.234;-2.094;2023-08-24T01:41:12;100210.04;;;22.99;41.18
73242;BME280;65659;49.234;-2.094;2023-08-24T01:43:36;100206.90;;;23.24;41.32
73242;BME280;65659;49.234;-2.094;2023-08-24T01:46:00;100205.25;;;22.96;41.57
73242;BME280;65659;49.234;-2.094;2023-08-24T01:48:26;100206.40;;;22.96;41.71
73242;BME280;65659;49.234;-2.094;2023-08-24T01:50:51;100210.86;;;22.97;41.84
73242;BME280;65659;49.234;-2.094;2023-08-24T01:53:17;100204.54;;;23.00;41.95
73242;BME280;65659;49.234;-2.094;2023-08-24T01:55:45;100206.19;;;22.98;42.09
73242;BME280;65659;49.234;-2.094;2023-08-24T01:58:08;100205.68;;;23.21;42.18
73242;BME280;65659;49.234;-2.094;2023-08-24T02:00:35;100199.78;;;23.19;42.33
73242;BME280;65659;49.234;-2.094;2023-08-24T02:03:00;100200.96;;;22.94;42.49
73242;BME280;65659;49.234;-2.094;2023-08-24T02:05:25;100204.12;;;22.98;42.65
73242;BME280;65659;49.234;-2.094;2023-08-24T02:07:51;100205.92;;;22.95;42.77
73242;BME280;65659;49.234;-2.094;2023-08-24T02:10:17;100214.76;;;22.97;42.93
73242;BME280;65659;49.234;-2.094;2023-08-24T02:12:42;100213.92;;;22.75;43.10
73242;BME280;65659;49.234;-2.094;2023-08-24T02:15:09;100210.32;;;23.30;43.28
73242;BME280;65659;49.234;-2.094;2023-08-24T02:17:34;100203.90;;;23.13;43.47
73242;BME280;65659;49.234;-2.094;2023-08-24T02:19:59;100199.25;;;23.68;43.71
73242;BME280;65659;49.234;-2.094;2023-08-24T02:22:25;100205.98;;;23.25;44.04
73242;BME280;65659;49.234;-2.094;2023-08-24T02:24:51;100205.51;;;23.35;44.08
73242;BME280;65659;49.234;-2.094;2023-08-24T02:27:16;100203.08;;;23.44;44.12
73242;BME280;65659;49.234;-2.094;2023-08-24T02:29:42;100210.44;;;23.54;44.18
73242;BME280;65659;49.234;-2.094;2023-08-24T02:32:08;100213.25;;;23.63;44.25
73242;BME280;65659;49.234;-2.094;2023-08-24T02:34:34;100207.68;;;23.69;44.30
73242;BME280;65659;49.234;-2.094;2023-08-24T02:36:59;100208.38;;;23.74;44.31
73242;BME280;65659;49.234;-2.094;2023-08-24T02:39:25;100202.12;;;23.85;44.22
73242;BME280;65659;49.234;-2.094;2023-08-24T02:41:50;100198.17;;;23.68;44.15
73242;BME280;65659;49.234;-2.094;2023-08-24T02:44:16;100207.31;;;23.94;44.10
73242;BME280;65659;49.234;-2.094;2023-08-24T02:46:44;100214.16;;;23.76;43.99
73242;BME280;65659;49.234;-2.094;2023-08-24T02:49:07;100225.20;;;24.05;43.90
73242;BME280;65659;49.234;-2.094;2023-08-24T02:51:33;100247.22;;;24.07;43.95
73242;BME280;65659;49.234;-2.094;2023-08-24T02:53:59;100251.09;;;24.13;43.90
73242;BME280;65659;49.234;-2.094;2023-08-24T02:56:24;100240.24;;;24.21;43.85
73242;BME280;65659;49.234;-2.094;2023-08-24T02:58:50;100253.54;;;24.04;43.99
73242;BME280;65659;49.234;-2.094;2023-08-24T03:01:16;100260.43;;;24.31;44.14
73242;BME280;65659;49.234;-2.094;2023-08-24T03:03:41;100256.74;;;24.09;44.46
73242;BME280;65659;49.234;-2.094;2023-08-24T03:06:07;100253.14;;;23.88;44.82
73242;BME280;65659;49.234;-2.094;2023-08-24T03:08:33;100236.83;;;24.13;45.29
73242;BME280;65659;49.234;-2.094;2023-08-24T03:10:59;100229.80;;;24.12;45.68
73242;BME280;65659;49.234;-2.094;2023-08-24T03:13:24;100238.00;;;24.10;45.98
73242;BME280;65659;49.234;-2.094;2023-08-24T03:15:49;100232.06;;;23.81;46.13
73242;BME280;65659;49.234;-2.094;2023-08-24T03:18:16;100225.03;;;23.98;46.55
73242;BME280;65659;49.234;-2.094;2023-08-24T03:20:40;100214.06;;;23.91;46.95
73242;BME280;65659;49.234;-2.094;2023-08-24T03:23:06;100203.05;;;23.83;47.48
73242;BME280;65659;49.234;-2.094;2023-08-24T03:25:40;100227.66;;;23.71;47.92
73242;BME280;65659;49.234;-2.094;2023-08-24T03:27:57;100267.66;;;23.85;48.04
73242;BME280;65659;49.234;-2.094;2023-08-24T03:30:23;100263.40;;;23.76;48.21
73242;BME280;65659;49.234;-2.094;2023-08-24T03:32:48;100247.43;;;23.72;48.62
73242;BME280;65659;49.234;-2.094;2023-08-24T03:35:14;100242.95;;;23.70;48.95
73242;BME280;65659;49.234;-2.094;2023-08-24T03:37:40;100240.14;;;23.37;49.13
73242;BME280;65659;49.234;-2.094;2023-08-24T03:40:07;100241.27;;;23.49;49.27
73242;BME280;65659;49.234;-2.094;2023-08-24T03:42:31;100231.77;;;23.19;49.24
73242;BME280;65659;49.234;-2.094;2023-08-24T03:44:59;100209.26;;;23.39;49.41
73242;BME280;65659;49.234;-2.094;2023-08-24T03:47:23;100202.49;;;23.33;49.88
73242;BME280;65659;49.234;-2.094;2023-08-24T03:49:48;100196.88;;;23.28;50.20
73242;BME280;65659;49.234;-2.094;2023-08-24T03:52:14;100201.38;;;23.23;50.48
73242;BME280;65659;49.234;-2.094;2023-08-24T03:54:40;100214.18;;;23.20;50.58
73242;BME280;65659;49.234;-2.094;2023-08-24T03:57:05;100213.70;;;23.14;50.72
73242;BME280;65659;49.234;-2.094;2023-08-24T03:59:31;100205.05;;;23.07;51.08
73242;BME280;65659;49.234;-2.094;2023-08-24T04:01:57;100186.68;;;22.99;51.34
73242;BME280;65659;49.234;-2.094;2023-08-24T04:04:22;100188.87;;;22.85;51.72
73242;BME280;65659;49.234;-2.094;2023-08-24T04:06:48;100202.77;;;22.76;51.59
73242;BME280;65659;49.234;-2.094;2023-08-24T04:09:14;100205.37;;;22.71;51.30
73242;BME280;65659;49.234;-2.094;2023-08-24T04:11:39;100217.20;;;22.86;51.31
73242;BME280;65659;49.234;-2.094;2023-08-24T04:14:05;100208.41;;;22.86;51.47
73242;BME280;65659;49.234;-2.094;2023-08-24T04:16:30;100216.72;;;22.61;51.77
73242;BME280;65659;49.234;-2.094;2023-08-24T04:18:56;100203.07;;;22.56;51.71
73242;BME280;65659;49.234;-2.094;2023-08-24T04:21:22;100222.28;;;22.81;51.71
73242;BME280;65659;49.234;-2.094;2023-08-24T04:23:47;100224.99;;;22.97;51.88
73242;BME280;65659;49.234;-2.094;2023-08-24T04:26:13;100231.77;;;22.93;52.12
73242;BME280;65659;49.234;-2.094;2023-08-24T04:28:38;100246.93;;;22.44;52.20
73242;BME280;65659;49.234;-2.094;2023-08-24T04:31:04;100239.71;;;22.58;52.46
73242;BME280;65659;49.234;-2.094;2023-08-24T04:33:29;100245.61;;;22.81;52.47
73242;BME280;65659;49.234;-2.094;2023-08-24T04:35:55;100242.42;;;22.80;52.46
73242;BME280;65659;49.234;-2.094;2023-08-24T04:38:21;100229.65;;;22.29;52.53
73242;BME280;65659;49.234;-2.094;2023-08-24T04:40:49;100226.10;;;22.69;52.68
73242;BME280;65659;49.234;-2.094;2023-08-24T04:43:12;100206.99;;;22.69;52.57
73242;BME280;65659;49.234;-2.094;2023-08-24T04:45:38;100216.37;;;22.18;52.36
73242;BME280;65659;49.234;-2.094;2023-08-24T04:48:04;100198.61;;;22.60;52.34
73242;BME280;65659;49.234;-2.094;2023-08-24T04:50:29;100201.51;;;22.00;52.23
73242;BME280;65659;49.234;-2.094;2023-08-24T04:52:54;100201.64;;;22.18;52.04
73242;BME280;65659;49.234;-2.094;2023-08-24T04:55:20;100204.42;;;22.31;52.04
73242;BME280;65659;49.234;-2.094;2023-08-24T04:57:46;100176.42;;;22.07;51.86
73242;BME280;65659;49.234;-2.094;2023-08-24T05:00:12;100162.36;;;22.23;51.82
73242;BME280;65659;49.234;-2.094;2023-08-24T05:02:37;100136.30;;;21.94;51.91
73242;BME280;65659;49.234;-2.094;2023-08-24T05:05:03;100128.40;;;22.22;52.08
73242;BME280;65659;49.234;-2.094;2023-08-24T05:07:28;100145.97;;;22.25;52.36
73242;BME280;65659;49.234;-2.094;2023-08-24T05:09:54;100151.08;;;22.28;52.44
73242;BME280;65659;49.234;-2.094;2023-08-24T05:12:19;100160.55;;;22.34;52.29
73242;BME280;65659;49.234;-2.094;2023-08-24T05:14:45;100142.65;;;22.41;51.98
73242;BME280;65659;49.234;-2.094;2023-08-24T05:17:10;100114.35;;;22.45;51.94
73242;BME280;65659;49.234;-2.094;2023-08-24T05:19:36;100104.11;;;22.51;51.98
73242;BME280;65659;49.234;-2.094;2023-08-24T05:22:02;100084.57;;;22.58;52.03
73242;BME280;65659;49.234;-2.094;2023-08-24T05:24:28;100038.99;;;22.39;52.11
73242;BME280;65659;49.234;-2.094;2023-08-24T05:26:53;100007.92;;;22.35;52.31
73242;BME280;65659;49.234;-2.094;2023-08-24T05:29:18;99998.66;;;22.33;52.36
73242;BME280;65659;49.234;-2.094;2023-08-24T05:31:44;99997.53;;;22.25;52.54
73242;BME280;65659;49.234;-2.094;2023-08-24T05:34:09;99997.24;;;22.48;52.48
73242;BME280;65659;49.234;-2.094;2023-08-24T05:36:36;100003.78;;;22.22;52.42
73242;BME280;65659;49.234;-2.094;2023-08-24T05:39:01;100001.39;;;22.48;52.38
73242;BME280;65659;49.234;-2.094;2023-08-24T05:41:26;99998.50;;;22.50;52.38
73242;BME280;65659;49.234;-2.094;2023-08-24T05:43:52;99975.84;;;22.26;52.43
73242;BME280;65659;49.234;-2.094;2023-08-24T05:46:18;100002.62;;;22.34;52.31
73242;BME280;65659;49.234;-2.094;2023-08-24T05:48:44;100000.83;;;22.41;52.13
73242;BME280;65659;49.234;-2.094;2023-08-24T05:51:09;100014.81;;;22.44;51.75
73242;BME280;65659;49.234;-2.094;2023-08-24T05:53:36;100028.46;;;22.41;51.55
73242;BME280;65659;49.234;-2.094;2023-08-24T05:56:01;100016.08;;;22.64;51.16
73242;BME280;65659;49.234;-2.094;2023-08-24T05:58:27;100013.83;;;22.61;50.98
73242;BME280;65659;49.234;-2.094;2023-08-24T06:00:58;100020.47;;;22.18;50.93
73242;BME280;65659;49.234;-2.094;2023-08-24T06:03:17;100035.83;;;22.19;50.75
73242;BME280;65659;49.234;-2.094;2023-08-24T06:05:43;100046.88;;;22.16;50.71
73242;BME280;65659;49.234;-2.094;2023-08-24T06:08:09;100048.35;;;22.23;50.67
73242;BME280;65659;49.234;-2.094;2023-08-24T06:10:35;100034.88;;;22.27;50.66
73242;BME280;65659;49.234;-2.094;2023-08-24T06:13:00;100013.44;;;22.24;50.80
73242;BME280;65659;49.234;-2.094;2023-08-24T06:15:26;100020.36;;;22.49;50.93
73242;BME280;65659;49.234;-2.094;2023-08-24T06:17:51;100033.53;;;22.29;50.89
73242;BME280;65659;49.234;-2.094;2023-08-24T06:20:17;100054.11;;;22.40;50.81
73242;BME280;65659;49.234;-2.094;2023-08-24T06:22:43;100062.99;;;22.52;50.76
73242;BME280;65659;49.234;-2.094;2023-08-24T06:25:09;100063.03;;;22.62;50.71
73242;BME280;65659;49.234;-2.094;2023-08-24T06:27:34;100059.49;;;22.70;50.61
73242;BME280;65659;49.234;-2.094;2023-08-24T06:29:59;100078.49;;;22.81;50.56
73242;BME280;65659;49.234;-2.094;2023-08-24T06:32:25;100094.31;;;22.39;50.59
73242;BME280;65659;49.234;-2.094;2023-08-24T06:34:51;100112.70;;;22.62;50.72
73242;BME280;65659;49.234;-2.094;2023-08-24T06:37:16;100145.30;;;22.67;50.73
73242;BME280;65659;49.234;-2.094;2023-08-24T06:39:42;100184.52;;;22.59;50.64
73242;BME280;65659;49.234;-2.094;2023-08-24T06:42:08;100204.57;;;22.65;50.66
73242;BME280;65659;49.234;-2.094;2023-08-24T06:44:33;100190.02;;;22.65;50.51
73242;BME280;65659;49.234;-2.094;2023-08-24T06:46:59;100126.76;;;22.66;50.42
73242;BME280;65659;49.234;-2.094;2023-08-24T06:49:24;100108.87;;;22.60;50.81
73242;BME280;65659;49.234;-2.094;2023-08-24T06:51:49;100098.18;;;22.60;50.96
73242;BME280;65659;49.234;-2.094;2023-08-24T06:56:41;100104.26;;;22.71;51.01
73242;BME280;65659;49.234;-2.094;2023-08-24T06:59:07;100116.04;;;22.56;50.85
73242;BME280;65659;49.234;-2.094;2023-08-24T07:01:34;100153.27;;;22.66;50.61
73242;BME280;65659;49.234;-2.094;2023-08-24T07:03:58;100172.34;;;22.54;50.26
73242;BME280;65659;49.234;-2.094;2023-08-24T07:06:24;100151.37;;;22.64;50.10
73242;BME280;65659;49.234;-2.094;2023-08-24T07:08:49;100149.97;;;22.62;50.28
73242;BME280;65659;49.234;-2.094;2023-08-24T07:11:17;100140.79;;;22.68;50.70
73242;BME280;65659;49.234;-2.094;2023-08-24T07:13:41;100131.97;;;22.42;50.74
73242;BME280;65659;49.234;-2.094;2023-08-24T07:16:12;100109.73;;;22.55;50.48
73242;BME280;65659;49.234;-2.094;2023-08-24T07:18:32;100089.70;;;22.49;50.07
73242;BME280;65659;49.234;-2.094;2023-08-24T07:20:58;100068.94;;;22.77;50.02
73242;BME280;65659;49.234;-2.094;2023-08-24T07:23:25;100064.18;;;22.27;50.12
73242;BME280;65659;49.234;-2.094;2023-08-24T07:25:50;100060.19;;;22.66;49.81
73242;BME280;65659;49.234;-2.094;2023-08-24T07:28:16;100051.88;;;22.52;49.66
73242;BME280;65659;49.234;-2.094;2023-08-24T07:30:41;100050.45;;;22.69;49.42
73242;BME280;65659;49.234;-2.094;2023-08-24T07:33:06;100049.11;;;23.28;49.46
73242;BME280;65659;49.234;-2.094;2023-08-24T07:35:32;100062.40;;;23.26;49.84
73242;BME280;65659;49.234;-2.094;2023-08-24T07:37:57;100081.49;;;23.58;50.67
73242;BME280;65659;49.234;-2.094;2023-08-24T07:40:23;100080.64;;;23.40;51.81
73242;BME280;65659;49.234;-2.094;2023-08-24T07:42:49;100061.14;;;23.24;52.42
73242;BME280;65659;49.234;-2.094;2023-08-24T07:45:19;100069.31;;;23.52;52.79
73242;BME280;65659;49.234;-2.094;2023-08-24T07:47:45;100075.40;;;22.48;51.65
73242;BME280;65659;49.234;-2.094;2023-08-24T07:50:24;100076.52;;;23.21;50.05
73242;BME280;65659;49.234;-2.094;2023-08-24T07:52:51;100063.56;;;23.22;49.17
73242;BME280;65659;49.234;-2.094;2023-08-24T07:55:06;100059.32;;;23.58;48.47
73242;BME280;65659;49.234;-2.094;2023-08-24T07:57:23;100060.15;;;23.71;48.11
73242;BME280;65659;49.234;-2.094;2023-08-24T07:59:48;100062.80;;;24.25;48.02
73242;BME280;65659;49.234;-2.094;2023-08-24T08:02:13;100064.58;;;24.61;48.73
73242;BME280;65659;49.234;-2.094;2023-08-24T08:04:41;100067.19;;;22.73;48.73
73242;BME280;65659;49.234;-2.094;2023-08-24T08:07:06;100067.98;;;23.15;47.53
73242;BME280;65659;49.234;-2.094;2023-08-24T08:09:30;100061.73;;;23.26;46.75
73242;BME280;65659;49.234;-2.094;2023-08-24T08:11:56;100056.97;;;23.50;46.27
73242;BME280;65659;49.234;-2.094;2023-08-24T08:14:23;100054.29;;;23.97;45.88
73242;BME280;65659;49.234;-2.094;2023-08-24T08:16:49;100055.35;;;23.68;45.93
73242;BME280;65659;49.234;-2.094;2023-08-24T08:19:14;100056.29;;;23.98;45.89
73242;BME280;65659;49.234;-2.094;2023-08-24T08:21:40;100068.77;;;23.78;45.88
73242;BME280;65659;49.234;-2.094;2023-08-24T08:24:06;100064.87;;;23.95;45.78
73242;BME280;65659;49.234;-2.094;2023-08-24T08:26:30;100062.40;;;23.82;45.86
73242;BME280;65659;49.234;-2.094;2023-08-24T08:28:56;100060.94;;;23.95;45.86
73242;BME280;65659;49.234;-2.094;2023-08-24T08:31:23;100064.00;;;24.34;45.79
73242;BME280;65659;49.234;-2.094;2023-08-24T08:33:48;100074.05;;;24.44;45.83
73242;BME280;65659;49.234;-2.094;2023-08-24T08:36:13;100084.46;;;24.54;45.81
73242;BME280;65659;49.234;-2.094;2023-08-24T08:38:42;100092.15;;;24.39;45.71
73242;BME280;65659;49.234;-2.094;2023-08-24T08:41:05;100095.83;;;24.14;45.66
73242;BME280;65659;49.234;-2.094;2023-08-24T08:43:30;100094.32;;;24.41;45.65
73242;BME280;65659;49.234;-2.094;2023-08-24T08:45:56;100089.60;;;24.61;45.61
73242;BME280;65659;49.234;-2.094;2023-08-24T08:48:22;100089.56;;;24.12;45.64
73242;BME280;65659;49.234;-2.094;2023-08-24T08:50:48;100087.43;;;24.14;45.69
73242;BME280;65659;49.234;-2.094;2023-08-24T08:53:12;100092.03;;;24.38;45.63
73242;BME280;65659;49.234;-2.094;2023-08-24T08:55:38;100096.64;;;24.18;45.38
73242;BME280;65659;49.234;-2.094;2023-08-24T08:58:05;100100.05;;;24.16;45.21
73242;BME280;65659;49.234;-2.094;2023-08-24T09:00:31;100103.89;;;24.33;44.96
73242;BME280;65659;49.234;-2.094;2023-08-24T09:02:55;100113.36;;;24.06;44.90
73242;BME280;65659;49.234;-2.094;2023-08-24T09:05:24;100119.02;;;24.12;44.52
73242;BME280;65659;49.234;-2.094;2023-08-24T09:07:49;100117.66;;;24.09;44.43
73242;BME280;65659;49.234;-2.094;2023-08-24T09:10:17;100116.58;;;24.18;44.24
73242;BME280;65659;49.234;-2.094;2023-08-24T09:15:12;100129.92;;;24.40;44.54
73242;BME280;65659;49.234;-2.094;2023-08-24T09:17:36;100133.17;;;24.10;44.85
73242;BME280;65659;49.234;-2.094;2023-08-24T09:20:06;100133.75;;;24.26;45.10
73242;BME280;65659;49.234;-2.094;2023-08-24T09:22:30;100140.88;;;24.28;45.14
73242;BME280;65659;49.234;-2.094;2023-08-24T09:24:53;100163.32;;;24.42;45.22
73242;BME280;65659;49.234;-2.094;2023-08-24T09:29:46;100122.20;;;24.13;45.56
73242;BME280;65659;49.234;-2.094;2023-08-24T09:32:09;100105.63;;;24.47;45.62
73242;BME280;65659;49.234;-2.094;2023-08-24T09:34:33;100107.92;;;24.32;45.65
73242;BME280;65659;49.234;-2.094;2023-08-24T09:37:00;100102.22;;;24.69;45.58
73242;BME280;65659;49.234;-2.094;2023-08-24T09:39:25;100093.65;;;24.54;45.66
73242;BME280;65659;49.234;-2.094;2023-08-24T09:41:53;100094.52;;;24.79;45.48
73242;BME280;65659;49.234;-2.094;2023-08-24T09:44:23;100091.67;;;24.69;45.51
73242;BME280;65659;49.234;-2.094;2023-08-24T09:47:00;100089.20;;;25.39;45.51
73242;BME280;65659;49.234;-2.094;2023-08-24T09:49:08;100080.26;;;25.04;45.66
73242;BME280;65659;49.234;-2.094;2023-08-24T09:51:49;100077.82;;;25.31;45.46
73242;BME280;65659;49.234;-2.094;2023-08-24T09:53:54;100083.22;;;25.15;45.53
73242;BME280;65659;49.234;-2.094;2023-08-24T09:56:30;100077.35;;;25.06;45.43
73242;BME280;65659;49.234;-2.094;2023-08-24T09:58:55;100068.29;;;25.29;44.99
73242;BME280;65659;49.234;-2.094;2023-08-24T10:03:39;100066.69;;;25.49;44.63
73242;BME280;65659;49.234;-2.094;2023-08-24T10:06:14;100064.10;;;25.68;44.14
73242;BME280;65659;49.234;-2.094;2023-08-24T10:08:44;100061.62;;;25.52;44.02
73242;BME280;65659;49.234;-2.094;2023-08-24T10:13:33;100032.79;;;26.12;44.07
73242;BME280;65659;49.234;-2.094;2023-08-24T10:15:58;100035.61;;;25.74;43.87
73242;BME280;65659;49.234;-2.094;2023-08-24T10:18:14;100038.08;;;25.66;43.91
73242;BME280;65659;49.234;-2.094;2023-08-24T10:20:33;100041.95;;;25.37;43.27
73242;BME280;65659;49.234;-2.094;2023-08-24T10:23:00;100046.94;;;25.96;42.74
73242;BME280;65659;49.234;-2.094;2023-08-24T10:25:25;100050.82;;;26.26;42.31
73242;BME280;65659;49.234;-2.094;2023-08-24T10:28:08;100061.34;;;26.50;41.81
73242;BME280;65659;49.234;-2.094;2023-08-24T10:30:17;100061.86;;;26.47;41.57
73242;BME280;65659;49.234;-2.094;2023-08-24T10:32:41;100062.10;;;26.36;41.36
73242;BME280;65659;49.234;-2.094;2023-08-24T10:35:10;100076.45;;;26.39;40.96
73242;BME280;65659;49.234;-2.094;2023-08-24T10:37:35;100067.48;;;26.16;40.82
73242;BME280;65659;49.234;-2.094;2023-08-24T10:39:59;100057.46;;;25.81;40.91
73242;BME280;65659;49.234;-2.094;2023-08-24T10:42:25;100055.26;;;25.79;41.23
73242;BME280;65659;49.234;-2.094;2023-08-24T10:44:57;100056.18;;;26.07;41.27
73242;BME280;65659;49.234;-2.094;2023-08-24T10:47:20;100051.37;;;25.97;41.13
73242;BME280;65659;49.234;-2.094;2023-08-24T10:49:45;100051.09;;;26.49;41.09
73242;BME280;65659;49.234;-2.094;2023-08-24T10:52:17;100048.07;;;26.39;40.86
73242;BME280;65659;49.234;-2.094;2023-08-24T10:54:34;100044.50;;;26.58;40.50
73242;BME280;65659;49.234;-2.094;2023-08-24T10:56:59;100044.25;;;26.52;39.91
73242;BME280;65659;49.234;-2.094;2023-08-24T10:59:25;100042.11;;;26.67;39.89
73242;BME280;65659;49.234;-2.094;2023-08-24T11:01:55;100044.16;;;27.04;39.82
73242;BME280;65659;49.234;-2.094;2023-08-24T11:04:16;100043.68;;;26.76;39.59
73242;BME280;65659;49.234;-2.094;2023-08-24T11:06:54;100048.48;;;26.57;39.62
73242;BME280;65659;49.234;-2.094;2023-08-24T11:09:12;100048.75;;;27.14;39.85
73242;BME280;65659;49.234;-2.094;2023-08-24T11:11:36;100042.68;;;26.99;39.43
73242;BME280;65659;49.234;-2.094;2023-08-24T11:14:15;100036.77;;;26.71;39.19
73242;BME280;65659;49.234;-2.094;2023-08-24T11:18:48;100033.58;;;26.71;39.12
73242;BME280;65659;49.234;-2.094;2023-08-24T11:21:15;100034.52;;;26.75;38.63
73242;BME280;65659;49.234;-2.094;2023-08-24T11:23:40;100041.95;;;26.65;38.74
73242;BME280;65659;49.234;-2.094;2023-08-24T11:26:08;100043.27;;;26.63;38.66
73242;BME280;65659;49.234;-2.094;2023-08-24T11:28:32;100035.86;;;26.89;38.65
73242;BME280;65659;49.234;-2.094;2023-08-24T11:30:57;100031.84;;;26.87;38.63
73242;BME280;65659;49.234;-2.094;2023-08-24T11:33:29;100035.81;;;26.65;38.47
73242;BME280;65659;49.234;-2.094;2023-08-24T11:35:48;100037.12;;;26.81;38.23
73242;BME280;65659;49.234;-2.094;2023-08-24T11:38:12;100041.42;;;26.55;38.16
73242;BME280;65659;49.234;-2.094;2023-08-24T11:40:39;100037.15;;;26.70;38.09
73242;BME280;65659;49.234;-2.094;2023-08-24T11:43:05;100035.76;;;26.69;38.19
73242;BME280;65659;49.234;-2.094;2023-08-24T11:45:37;100045.02;;;26.74;37.97
73242;BME280;65659;49.234;-2.094;2023-08-24T11:47:55;100047.11;;;26.40;38.02
73242;BME280;65659;49.234;-2.094;2023-08-24T11:50:22;100038.04;;;26.43;37.93
73242;BME280;65659;49.234;-2.094;2023-08-24T11:55:20;100015.65;;;27.01;38.28
73242;BME280;65659;49.234;-2.094;2023-08-24T11:57:44;100006.07;;;27.38;38.30
73242;BME280;65659;49.234;-2.094;2023-08-24T12:00:12;100008.70;;;26.79;38.46
73242;BME280;65659;49.234;-2.094;2023-08-24T12:02:32;100007.42;;;27.27;38.73
73242;BME280;65659;49.234;-2.094;2023-08-24T12:04:58;100005.63;;;27.16;38.71
73242;BME280;65659;49.234;-2.094;2023-08-24T12:07:24;99999.07;;;27.50;38.81
73242;BME280;65659;49.234;-2.094;2023-08-24T12:09:49;100000.20;;;26.74;38.94
73242;BME280;65659;49.234;-2.094;2023-08-24T12:12:16;99991.16;;;26.50;39.17
73242;BME280;65659;49.234;-2.094;2023-08-24T12:14:43;99982.03;;;26.74;39.08
73242;BME280;65659;49.234;-2.094;2023-08-24T12:17:07;99979.04;;;26.66;38.98
73242;BME280;65659;49.234;-2.094;2023-08-24T12:19:29;99978.26;;;26.50;39.12
73242;BME280;65659;49.234;-2.094;2023-08-24T12:21:54;99984.75;;;26.34;39.09
73242;BME280;65659;49.234;-2.094;2023-08-24T12:24:19;99983.82;;;26.55;39.04
73242;BME280;65659;49.234;-2.094;2023-08-24T12:26:45;99993.08;;;26.50;39.07
73242;BME280;65659;49.234;-2.094;2023-08-24T12:29:11;99988.68;;;26.53;39.14
73242;BME280;65659;49.234;-2.094;2023-08-24T12:31:35;99995.56;;;26.69;39.14
73242;BME280;65659;49.234;-2.094;2023-08-24T12:34:01;99987.11;;;26.66;39.14
73242;BME280;65659;49.234;-2.094;2023-08-24T12:36:26;99977.23;;;26.29;39.27
73242;BME280;65659;49.234;-2.094;2023-08-24T12:38:51;99989.25;;;26.39;38.97
73242;BME280;65659;49.234;-2.094;2023-08-24T12:43:44;99997.77;;;27.06;38.83
73242;BME280;65659;49.234;-2.094;2023-08-24T12:46:09;99993.15;;;26.39;39.12
73242;BME280;65659;49.234;-2.094;2023-08-24T12:48:33;99994.65;;;25.79;39.03
73242;BME280;65659;49.234;-2.094;2023-08-24T12:50:59;99984.70;;;26.15;39.08